To NAV CANADA Home Page Login to a new session Search on AWWS site Feedback and Comments Disclaimer Vers la page française équivalente Tips FAQ What's new on the site To the Forecasts and Observations / NOTAM section To "File a Flight Plan" website Publications and other links Update of the User's profile FIC Telephone Numbers My Weather Data Folder Route Weather Data Regional Weather Data Local Weather Data To the Forecasts and Observations / NOTAM section
Request Generated 04/18/2015 at 03:18:14 UTC . Weather information available at that time is displayed.

METAR/TAF

ST. JOHN'S/ST. JOHN'S INTL/NL    

METAR CYYT 180300Z 20005KT 15SM OVC100 M00/M02 A2963 RMK AC8 SLP040=
METAR CYYT 180200Z 26014KT 15SM BKN070 OVC160 00/M02 A2965 RMK AC5AC3
SLP046=
METAR CYYT 180100Z 22004KT 15SM BKN140 00/M02 A2967 RMK AC7 SLP054=

TAF CYYT 172338Z 1800/1824 19005KT P6SM BKN080
FM180600 22005KT 6SM BR FEW005 BKN080 PROB30 1806/1812 2SM BR
BKN005
FM181400 28010KT P6SM OVC025 TEMPO 1814/1820 5SM -SHRA BR OVC020
FM182000 31015G25KT P6SM SCT007 BKN030 TEMPO 1820/1824 BKN007
RMK NXT FCST BY 180600Z=
Your time UTC time
Weather data provided by Environment Canada and NAV CANADA